Check out our new PWSWeather beta!
PWSweather.com
Personal Weather Stations
Station Observations
SEANO
CarmignanoIT

CarmignanoIT

Lat: 43.829667, Lon: 11.02622

Elevation: 142

Station Type: Davis Vantage Pro2

http://www.meteoseano.it

High Low Average
Temperature 54.9°F12.7°C 45.3°F7.4°C 49.6°F9.8°C
Dew Point 51.4°F10.8°C 43.9°F6.6°C 47.7°F8.7°C
Winds 3.5 mph 5.6 kmh Calm Calm Calm SWCalm SW
Wind Gusts 4.6 mph7.4 kmh -- 1.0 mph1.6 kmh
Humidity 96% 84% 93%
Pressure 30.16 in1021.3 mb 30.00 in1015.9 mb -
Precipitation 0.08 in2.0 mm - -
Hour Temp Dew Point Humidity Winds Wind Gusts Pressure Precip Precip Rate Daily Precip Total
12:00 AM 45.3°F7.4°C 43.6°F6.4°C 94% Calm Calm -- 30.15 in1021.0 mb - 0.00 in0.0 mm 0.00 in0.0 mm
12:10 AM 45.6°F7.6°C 43.9°F6.6°C 94% Calm Calm -- 30.15 in1021.0 mb - 0.00 in0.0 mm 0.00 in0.0 mm
12:15 AM 45.6°F7.6°C 44.0°F6.7°C 94% Calm Calm -- 30.15 in1021.0 mb - 0.00 in0.0 mm 0.00 in0.0 mm
12:20 AM 45.6°F7.6°C 44.0°F6.7°C 94% Calm Calm -- 30.15 in1021.0 mb - 0.00 in0.0 mm 0.00 in0.0 mm
12:25 AM 45.7°F7.6°C 44.0°F6.7°C 94% Calm Calm -- 30.15 in1021.0 mb - 0.00 in0.0 mm 0.00 in0.0 mm
12:30 AM 45.7°F7.6°C 44.1°F6.7°C 94% Calm Calm -- 30.15 in1021.0 mb - 0.00 in0.0 mm 0.00 in0.0 mm
12:35 AM 45.7°F7.6°C 44.1°F6.7°C 94% Calm Calm -- 30.15 in1021.0 mb - 0.00 in0.0 mm 0.00 in0.0 mm
12:40 AM 45.7°F7.6°C 44.1°F6.7°C 94% Calm Calm -- 30.16 in1021.3 mb - 0.00 in0.0 mm 0.00 in0.0 mm
12:45 AM 45.6°F7.6°C 44.0°F6.7°C 94% Calm Calm -- 30.15 in1021.0 mb - 0.00 in0.0 mm 0.00 in0.0 mm
12:50 AM 45.6°F7.6°C 44.0°F6.7°C 94% Calm Calm -- 30.15 in1021.0 mb - 0.00 in0.0 mm 0.00 in0.0 mm
12:55 AM 45.6°F7.6°C 43.9°F6.6°C 94% Calm Calm -- 30.15 in1021.0 mb - 0.00 in0.0 mm 0.00 in0.0 mm
01:00 AM 45.5°F7.5°C 43.9°F6.6°C 94% Calm Calm -- 30.15 in1021.0 mb - 0.00 in0.0 mm 0.00 in0.0 mm
01:10 AM 45.5°F7.5°C 43.9°F6.6°C 94% Calm Calm -- 30.15 in1021.0 mb - 0.00 in0.0 mm 0.00 in0.0 mm
01:15 AM 45.6°F7.6°C 44.0°F6.7°C 94% Calm Calm -- 30.16 in1021.3 mb - 0.00 in0.0 mm 0.00 in0.0 mm
01:20 AM 45.7°F7.6°C 44.1°F6.7°C 94% Calm Calm -- 30.16 in1021.3 mb - 0.00 in0.0 mm 0.00 in0.0 mm
01:25 AM 45.7°F7.6°C 44.1°F6.7°C 94% Calm Calm -- 30.16 in1021.3 mb - 0.00 in0.0 mm 0.00 in0.0 mm
01:30 AM 45.7°F7.6°C 44.1°F6.7°C 94% Calm Calm -- 30.15 in1021.0 mb - 0.00 in0.0 mm 0.00 in0.0 mm
01:35 AM 45.7°F7.6°C 44.1°F6.7°C 94% Calm Calm -- 30.15 in1021.0 mb - 0.00 in0.0 mm 0.00 in0.0 mm
01:40 AM 45.7°F7.6°C 44.1°F6.7°C 94% Calm Calm -- 30.15 in1021.0 mb - 0.00 in0.0 mm 0.00 in0.0 mm
01:45 AM 45.7°F7.6°C 44.1°F6.7°C 94% Calm Calm -- 30.15 in1021.0 mb - 0.00 in0.0 mm 0.00 in0.0 mm
01:50 AM 45.6°F7.6°C 44.0°F6.7°C 94% Calm Calm -- 30.15 in1021.0 mb - 0.00 in0.0 mm 0.00 in0.0 mm
01:55 AM 45.6°F7.6°C 44.0°F6.7°C 94% Calm Calm -- 30.15 in1021.0 mb - 0.00 in0.0 mm 0.00 in0.0 mm
02:00 AM 45.6°F7.6°C 44.0°F6.7°C 94% Calm Calm 1.2 mph1.9 kmh 30.15 in1021.0 mb - 0.00 in0.0 mm 0.00 in0.0 mm
02:10 AM 45.6°F7.6°C 44.0°F6.7°C 94% Calm Calm -- 30.15 in1021.0 mb - 0.00 in0.0 mm 0.00 in0.0 mm
02:15 AM 45.6°F7.6°C 44.3°F6.8°C 95% Calm Calm -- 30.15 in1021.0 mb - 0.00 in0.0 mm 0.00 in0.0 mm
02:20 AM 45.5°F7.5°C 43.9°F6.6°C 94% 1.2 mph SSE1.9 kmh SSE 1.2 mph1.9 kmh 30.15 in1021.0 mb - 0.00 in0.0 mm 0.00 in0.0 mm
02:25 AM 45.4°F7.4°C 44.1°F6.7°C 95% Calm Calm -- 30.15 in1021.0 mb - 0.00 in0.0 mm 0.00 in0.0 mm
02:30 AM 45.5°F7.5°C 44.2°F6.8°C 95% Calm Calm 1.2 mph1.9 kmh 30.15 in1021.0 mb - 0.00 in0.0 mm 0.00 in0.0 mm
02:35 AM 45.7°F7.6°C 44.4°F6.9°C 95% 1.2 mph SSE1.9 kmh SSE 1.2 mph1.9 kmh 30.14 in1020.7 mb - 0.00 in0.0 mm 0.00 in0.0 mm
02:40 AM 45.7°F7.6°C 44.4°F6.9°C 95% Calm Calm -- 30.14 in1020.7 mb - 0.00 in0.0 mm 0.00 in0.0 mm
02:45 AM 45.7°F7.6°C 44.4°F6.9°C 95% Calm Calm 1.2 mph1.9 kmh 30.14 in1020.7 mb - 0.00 in0.0 mm 0.00 in0.0 mm
02:50 AM 45.7°F7.6°C 44.3°F6.8°C 95% Calm Calm -- 30.14 in1020.7 mb - 0.00 in0.0 mm 0.00 in0.0 mm
02:55 AM 45.6°F7.6°C 44.3°F6.8°C 95% Calm Calm -- 30.14 in1020.7 mb - 0.00 in0.0 mm 0.00 in0.0 mm
03:00 AM 45.6°F7.6°C 44.3°F6.8°C 95% Calm Calm -- 30.14 in1020.7 mb - 0.00 in0.0 mm 0.00 in0.0 mm
03:10 AM 45.6°F7.6°C 44.3°F6.8°C 95% Calm Calm -- 30.14 in1020.7 mb - 0.00 in0.0 mm 0.00 in0.0 mm
03:15 AM 45.5°F7.5°C 44.2°F6.8°C 95% Calm Calm -- 30.14 in1020.7 mb - 0.00 in0.0 mm 0.00 in0.0 mm
03:20 AM 45.5°F7.5°C 44.2°F6.8°C 95% Calm Calm -- 30.14 in1020.7 mb - 0.00 in0.0 mm 0.00 in0.0 mm
03:25 AM 45.7°F7.6°C 44.3°F6.8°C 95% Calm Calm -- 30.13 in1020.3 mb - 0.00 in0.0 mm 0.00 in0.0 mm
03:30 AM 45.8°F7.7°C 44.4°F6.9°C 95% Calm Calm -- 30.13 in1020.3 mb - 0.00 in0.0 mm 0.00 in0.0 mm
03:35 AM 45.8°F7.7°C 44.4°F6.9°C 95% Calm Calm -- 30.13 in1020.3 mb - 0.00 in0.0 mm 0.00 in0.0 mm
03:40 AM 45.7°F7.6°C 44.4°F6.9°C 95% Calm Calm -- 30.13 in1020.3 mb - 0.00 in0.0 mm 0.00 in0.0 mm
03:45 AM 45.7°F7.6°C 44.4°F6.9°C 95% Calm Calm -- 30.13 in1020.3 mb - 0.00 in0.0 mm 0.00 in0.0 mm
03:50 AM 45.7°F7.6°C 44.3°F6.8°C 95% Calm Calm -- 30.13 in1020.3 mb - 0.00 in0.0 mm 0.00 in0.0 mm
03:55 AM 45.6°F7.6°C 44.3°F6.8°C 95% Calm Calm -- 30.13 in1020.3 mb - 0.00 in0.0 mm 0.00 in0.0 mm
04:00 AM 45.5°F7.5°C 44.2°F6.8°C 95% Calm Calm -- 30.13 in1020.3 mb - 0.00 in0.0 mm 0.00 in0.0 mm
04:10 AM 45.5°F7.5°C 44.2°F6.8°C 95% Calm Calm -- 30.13 in1020.3 mb - 0.00 in0.0 mm 0.00 in0.0 mm
04:15 AM 45.4°F7.4°C 44.1°F6.7°C 95% Calm Calm -- 30.13 in1020.3 mb - 0.00 in0.0 mm 0.00 in0.0 mm
04:20 AM 45.4°F7.4°C 44.1°F6.7°C 95% Calm Calm -- 30.13 in1020.3 mb - 0.00 in0.0 mm 0.00 in0.0 mm
04:25 AM 45.4°F7.4°C 44.1°F6.7°C 95% Calm Calm -- 30.12 in1020.0 mb - 0.00 in0.0 mm 0.00 in0.0 mm
04:30 AM 45.3°F7.4°C 44.0°F6.7°C 95% Calm Calm -- 30.12 in1020.0 mb - 0.00 in0.0 mm 0.00 in0.0 mm
04:35 AM 45.3°F7.4°C 44.0°F6.7°C 95% Calm Calm -- 30.12 in1020.0 mb - 0.00 in0.0 mm 0.00 in0.0 mm
04:45 AM 45.3°F7.4°C 44.0°F6.7°C 95% Calm Calm -- 30.12 in1020.0 mb - 0.00 in0.0 mm 0.00 in0.0 mm
04:50 AM 45.3°F7.4°C 44.0°F6.7°C 95% Calm Calm -- 30.12 in1020.0 mb - 0.00 in0.0 mm 0.00 in0.0 mm
04:55 AM 45.3°F7.4°C 44.0°F6.7°C 95% 1.2 mph SSE1.9 kmh SSE 1.2 mph1.9 kmh 30.12 in1020.0 mb - 0.00 in0.0 mm 0.00 in0.0 mm
05:00 AM 45.4°F7.4°C 44.1°F6.7°C 95% Calm Calm -- 30.12 in1020.0 mb - 0.00 in0.0 mm 0.00 in0.0 mm
05:10 AM 45.4°F7.4°C 44.1°F6.7°C 95% Calm Calm -- 30.12 in1020.0 mb - 0.00 in0.0 mm 0.00 in0.0 mm
05:15 AM 45.4°F7.4°C 44.1°F6.7°C 95% Calm Calm -- 30.12 in1020.0 mb - 0.00 in0.0 mm 0.00 in0.0 mm
05:20 AM 45.4°F7.4°C 44.1°F6.7°C 95% Calm Calm -- 30.12 in1020.0 mb - 0.00 in0.0 mm 0.00 in0.0 mm
05:25 AM 45.4°F7.4°C 44.1°F6.7°C 95% 1.2 mph SSE1.9 kmh SSE 1.2 mph1.9 kmh 30.11 in1019.6 mb - 0.00 in0.0 mm 0.00 in0.0 mm
05:30 AM 45.4°F7.4°C 44.1°F6.7°C 95% Calm Calm -- 30.11 in1019.6 mb - 0.00 in0.0 mm 0.00 in0.0 mm
05:35 AM 45.5°F7.5°C 44.2°F6.8°C 95% Calm Calm -- 30.11 in1019.6 mb - 0.00 in0.0 mm 0.00 in0.0 mm
05:40 AM 45.5°F7.5°C 44.2°F6.8°C 95% Calm Calm -- 30.11 in1019.6 mb - 0.00 in0.0 mm 0.00 in0.0 mm
05:45 AM 45.5°F7.5°C 44.2°F6.8°C 95% Calm Calm -- 30.11 in1019.6 mb - 0.00 in0.0 mm 0.00 in0.0 mm
05:50 AM 45.5°F7.5°C 44.2°F6.8°C 95% Calm Calm -- 30.11 in1019.6 mb - 0.00 in0.0 mm 0.00 in0.0 mm
05:55 AM 45.4°F7.4°C 44.1°F6.7°C 95% Calm Calm -- 30.11 in1019.6 mb - 0.00 in0.0 mm 0.00 in0.0 mm
06:00 AM 45.4°F7.4°C 44.1°F6.7°C 95% Calm Calm -- 30.11 in1019.6 mb - 0.00 in0.0 mm 0.00 in0.0 mm
06:10 AM 45.4°F7.4°C 44.1°F6.7°C 95% 1.2 mph SSE1.9 kmh SSE 2.3 mph3.7 kmh 30.11 in1019.6 mb - 0.00 in0.0 mm 0.00 in0.0 mm
06:15 AM 45.3°F7.4°C 44.0°F6.7°C 95% 1.2 mph SSE1.9 kmh SSE 2.3 mph3.7 kmh 30.11 in1019.6 mb - 0.00 in0.0 mm 0.00 in0.0 mm
06:20 AM 45.3°F7.4°C 44.0°F6.7°C 95% Calm Calm -- 30.11 in1019.6 mb - 0.00 in0.0 mm 0.00 in0.0 mm
06:25 AM 45.3°F7.4°C 44.0°F6.7°C 95% Calm Calm -- 30.11 in1019.6 mb - 0.00 in0.0 mm 0.00 in0.0 mm
06:30 AM 45.3°F7.4°C 44.0°F6.7°C 95% Calm Calm -- 30.11 in1019.6 mb - 0.00 in0.0 mm 0.00 in0.0 mm
06:35 AM 45.3°F7.4°C 44.0°F6.7°C 95% Calm Calm -- 30.11 in1019.6 mb - 0.00 in0.0 mm 0.00 in0.0 mm
06:40 AM 45.3°F7.4°C 44.0°F6.7°C 95% Calm Calm -- 30.11 in1019.6 mb - 0.00 in0.0 mm 0.00 in0.0 mm
06:45 AM 45.3°F7.4°C 44.0°F6.7°C 95% Calm Calm -- 30.11 in1019.6 mb - 0.00 in0.0 mm 0.00 in0.0 mm
06:50 AM 45.3°F7.4°C 44.0°F6.7°C 95% Calm Calm -- 30.11 in1019.6 mb - 0.00 in0.0 mm 0.00 in0.0 mm
06:55 AM 45.4°F7.4°C 44.3°F6.8°C 96% Calm Calm -- 30.11 in1019.6 mb - 0.00 in0.0 mm 0.00 in0.0 mm
07:00 AM 45.4°F7.4°C 44.3°F6.8°C 96% Calm Calm -- 30.11 in1019.6 mb - 0.00 in0.0 mm 0.00 in0.0 mm
07:10 AM 45.5°F7.5°C 44.1°F6.7°C 95% Calm Calm -- 30.11 in1019.6 mb - 0.00 in0.0 mm 0.00 in0.0 mm
07:15 AM 45.5°F7.5°C 44.1°F6.7°C 95% Calm Calm -- 30.11 in1019.6 mb - 0.00 in0.0 mm 0.00 in0.0 mm
07:20 AM 45.5°F7.5°C 44.1°F6.7°C 95% Calm Calm -- 30.11 in1019.6 mb - 0.00 in0.0 mm 0.00 in0.0 mm
07:25 AM 45.5°F7.5°C 44.4°F6.9°C 96% Calm Calm -- 30.11 in1019.6 mb - 0.00 in0.0 mm 0.00 in0.0 mm
07:30 AM 45.5°F7.5°C 44.4°F6.9°C 96% Calm Calm -- 30.12 in1020.0 mb - 0.00 in0.0 mm 0.00 in0.0 mm
07:35 AM 45.5°F7.5°C 44.4°F6.9°C 96% Calm Calm -- 30.11 in1019.6 mb - 0.00 in0.0 mm 0.00 in0.0 mm
07:40 AM 45.5°F7.5°C 44.4°F6.9°C 96% Calm Calm -- 30.11 in1019.6 mb - 0.00 in0.0 mm 0.00 in0.0 mm
07:45 AM 45.6°F7.6°C 44.5°F6.9°C 96% Calm Calm -- 30.12 in1020.0 mb - 0.00 in0.0 mm 0.00 in0.0 mm
07:50 AM 45.7°F7.6°C 44.6°F7.0°C 96% Calm Calm -- 30.12 in1020.0 mb - 0.00 in0.0 mm 0.00 in0.0 mm
07:55 AM 45.7°F7.6°C 44.6°F7.0°C 96% 1.2 mph SSE1.9 kmh SSE 2.3 mph3.7 kmh 30.12 in1020.0 mb - 0.00 in0.0 mm 0.00 in0.0 mm
08:00 AM 45.7°F7.6°C 44.4°F6.9°C 95% Calm Calm -- 30.12 in1020.0 mb - 0.00 in0.0 mm 0.00 in0.0 mm
08:10 AM 45.6°F7.6°C 44.3°F6.8°C 95% Calm Calm -- 30.12 in1020.0 mb - 0.00 in0.0 mm 0.00 in0.0 mm
08:15 AM 45.6°F7.6°C 44.3°F6.8°C 95% Calm Calm -- 30.12 in1020.0 mb - 0.00 in0.0 mm 0.00 in0.0 mm
08:20 AM 45.6°F7.6°C 44.5°F6.9°C 96% Calm Calm -- 30.12 in1020.0 mb - 0.00 in0.0 mm 0.00 in0.0 mm
08:25 AM 45.6°F7.6°C 44.5°F6.9°C 96% Calm Calm -- 30.12 in1020.0 mb - 0.00 in0.0 mm 0.00 in0.0 mm
08:30 AM 45.6°F7.6°C 44.5°F6.9°C 96% Calm Calm -- 30.12 in1020.0 mb - 0.00 in0.0 mm 0.00 in0.0 mm
08:35 AM 45.6°F7.6°C 44.5°F6.9°C 96% Calm Calm -- 30.12 in1020.0 mb - 0.00 in0.0 mm 0.00 in0.0 mm
08:40 AM 45.7°F7.6°C 44.6°F7.0°C 96% Calm Calm -- 30.12 in1020.0 mb - 0.00 in0.0 mm 0.00 in0.0 mm
08:45 AM 45.7°F7.6°C 44.6°F7.0°C 96% Calm Calm -- 30.12 in1020.0 mb - 0.00 in0.0 mm 0.00 in0.0 mm
08:50 AM 45.8°F7.7°C 44.7°F7.1°C 96% Calm Calm -- 30.12 in1020.0 mb - 0.00 in0.0 mm 0.00 in0.0 mm
08:55 AM 45.8°F7.7°C 44.8°F7.1°C 96% Calm Calm 1.2 mph1.9 kmh 30.12 in1020.0 mb - 0.00 in0.0 mm 0.00 in0.0 mm
09:00 AM 45.9°F7.7°C 44.8°F7.1°C 96% Calm Calm -- 30.12 in1020.0 mb - 0.00 in0.0 mm 0.00 in0.0 mm
09:10 AM 46.0°F7.8°C 45.0°F7.2°C 96% Calm Calm -- 30.12 in1020.0 mb - 0.00 in0.0 mm 0.00 in0.0 mm
09:15 AM 46.2°F7.9°C 45.1°F7.3°C 96% Calm Calm -- 30.12 in1020.0 mb - 0.00 in0.0 mm 0.00 in0.0 mm
09:20 AM 46.3°F7.9°C 45.2°F7.3°C 96% Calm Calm -- 30.12 in1020.0 mb - 0.00 in0.0 mm 0.00 in0.0 mm
09:25 AM 46.5°F8.1°C 45.4°F7.4°C 96% Calm Calm -- 30.12 in1020.0 mb - 0.00 in0.0 mm 0.00 in0.0 mm
09:30 AM 46.7°F8.2°C 45.6°F7.6°C 96% Calm Calm 1.2 mph1.9 kmh 30.12 in1020.0 mb - 0.00 in0.0 mm 0.00 in0.0 mm
09:35 AM 46.9°F8.3°C 45.8°F7.7°C 96% Calm Calm -- 30.12 in1020.0 mb - 0.00 in0.0 mm 0.00 in0.0 mm
09:40 AM 47.0°F8.3°C 45.9°F7.7°C 96% Calm Calm -- 30.12 in1020.0 mb - 0.00 in0.0 mm 0.00 in0.0 mm
09:45 AM 47.0°F8.3°C 45.9°F7.7°C 96% Calm Calm -- 30.12 in1020.0 mb - 0.00 in0.0 mm 0.00 in0.0 mm
09:50 AM 47.1°F8.4°C 46.0°F7.8°C 96% Calm Calm -- 30.12 in1020.0 mb - 0.00 in0.0 mm 0.00 in0.0 mm
09:55 AM 47.1°F8.4°C 46.0°F7.8°C 96% Calm Calm -- 30.12 in1020.0 mb - 0.00 in0.0 mm 0.00 in0.0 mm
10:00 AM 47.2°F8.4°C 46.1°F7.8°C 96% Calm Calm -- 30.12 in1020.0 mb - 0.00 in0.0 mm 0.00 in0.0 mm
10:10 AM 47.6°F8.7°C 46.5°F8.1°C 96% 1.2 mph SE1.9 kmh SE 2.3 mph3.7 kmh 30.12 in1020.0 mb - 0.00 in0.0 mm 0.00 in0.0 mm
10:15 AM 47.7°F8.7°C 46.6°F8.1°C 96% Calm Calm 1.2 mph1.9 kmh 30.12 in1020.0 mb - 0.00 in0.0 mm 0.00 in0.0 mm
10:20 AM 47.8°F8.8°C 46.7°F8.2°C 96% Calm Calm 1.2 mph1.9 kmh 30.12 in1020.0 mb - 0.00 in0.0 mm 0.00 in0.0 mm
10:25 AM 47.9°F8.8°C 46.8°F8.2°C 96% 1.2 mph SE1.9 kmh SE 2.3 mph3.7 kmh 30.12 in1020.0 mb - 0.00 in0.0 mm 0.00 in0.0 mm
10:30 AM 48.0°F8.9°C 46.9°F8.3°C 96% 2.3 mph SE3.7 kmh SE 2.3 mph3.7 kmh 30.12 in1020.0 mb - 0.00 in0.0 mm 0.00 in0.0 mm
10:35 AM 48.1°F8.9°C 47.0°F8.3°C 96% 1.2 mph SE1.9 kmh SE 3.5 mph5.6 kmh 30.12 in1020.0 mb - 0.00 in0.0 mm 0.00 in0.0 mm
10:40 AM 48.2°F9.0°C 47.1°F8.4°C 96% 2.3 mph SE3.7 kmh SE 2.3 mph3.7 kmh 30.12 in1020.0 mb - 0.00 in0.0 mm 0.00 in0.0 mm
10:45 AM 48.5°F9.2°C 47.4°F8.6°C 96% 1.2 mph SE1.9 kmh SE 2.3 mph3.7 kmh 30.12 in1020.0 mb - 0.00 in0.0 mm 0.00 in0.0 mm
10:50 AM 48.8°F9.3°C 47.7°F8.7°C 96% Calm Calm 1.2 mph1.9 kmh 30.12 in1020.0 mb - 0.00 in0.0 mm 0.00 in0.0 mm
10:55 AM 49.1°F9.5°C 48.0°F8.9°C 96% 1.2 mph SE1.9 kmh SE 2.3 mph3.7 kmh 30.12 in1020.0 mb - 0.00 in0.0 mm 0.00 in0.0 mm
11:00 AM 49.3°F9.6°C 48.2°F9.0°C 96% 1.2 mph SE1.9 kmh SE 3.5 mph5.6 kmh 30.12 in1020.0 mb - 0.00 in0.0 mm 0.00 in0.0 mm
11:10 AM 49.7°F9.8°C 48.6°F9.2°C 96% 1.2 mph SE1.9 kmh SE 1.2 mph1.9 kmh 30.12 in1020.0 mb - 0.00 in0.0 mm 0.00 in0.0 mm
11:15 AM 49.9°F9.9°C 48.8°F9.3°C 96% 1.2 mph SE1.9 kmh SE 1.2 mph1.9 kmh 30.12 in1020.0 mb - 0.00 in0.0 mm 0.00 in0.0 mm
11:20 AM 50.1°F10.1°C 49.0°F9.4°C 96% 2.3 mph SE3.7 kmh SE 3.5 mph5.6 kmh 30.12 in1020.0 mb - 0.00 in0.0 mm 0.00 in0.0 mm
11:25 AM 50.1°F10.1°C 49.0°F9.4°C 96% Calm Calm 1.2 mph1.9 kmh 30.11 in1019.6 mb - 0.00 in0.0 mm 0.00 in0.0 mm
11:30 AM 50.2°F10.1°C 49.1°F9.5°C 96% Calm Calm -- 30.11 in1019.6 mb - 0.00 in0.0 mm 0.00 in0.0 mm
11:35 AM 50.2°F10.1°C 49.1°F9.5°C 96% Calm Calm -- 30.11 in1019.6 mb - 0.00 in0.0 mm 0.00 in0.0 mm
11:40 AM 50.3°F10.2°C 49.2°F9.6°C 96% Calm Calm -- 30.11 in1019.6 mb - 0.00 in0.0 mm 0.00 in0.0 mm
11:45 AM 50.6°F10.3°C 49.5°F9.7°C 96% Calm Calm -- 30.11 in1019.6 mb - 0.00 in0.0 mm 0.00 in0.0 mm
11:50 AM 50.8°F10.4°C 49.7°F9.8°C 96% Calm Calm -- 30.11 in1019.6 mb - 0.00 in0.0 mm 0.00 in0.0 mm
11:55 AM 50.9°F10.5°C 49.8°F9.9°C 96% Calm Calm 1.2 mph1.9 kmh 30.11 in1019.6 mb - 0.00 in0.0 mm 0.00 in0.0 mm
12:00 PM 51.1°F10.6°C 50.0°F10.0°C 96% 1.2 mph SE1.9 kmh SE 2.3 mph3.7 kmh 30.11 in1019.6 mb - 0.00 in0.0 mm 0.00 in0.0 mm
12:10 PM 51.3°F10.7°C 50.2°F10.1°C 96% 1.2 mph SE1.9 kmh SE 3.5 mph5.6 kmh 30.10 in1019.3 mb - 0.00 in0.0 mm 0.00 in0.0 mm
12:15 PM 51.4°F10.8°C 50.3°F10.2°C 96% 2.3 mph SE3.7 kmh SE 3.5 mph5.6 kmh 30.10 in1019.3 mb - 0.00 in0.0 mm 0.00 in0.0 mm
12:20 PM 51.6°F10.9°C 50.5°F10.3°C 96% 2.3 mph SE3.7 kmh SE 3.5 mph5.6 kmh 30.10 in1019.3 mb - 0.00 in0.0 mm 0.00 in0.0 mm
12:25 PM 51.7°F10.9°C 50.6°F10.3°C 96% Calm Calm 1.2 mph1.9 kmh 30.10 in1019.3 mb - 0.00 in0.0 mm 0.00 in0.0 mm
12:30 PM 52.0°F11.1°C 50.9°F10.5°C 96% 2.3 mph WNW3.7 kmh WNW 3.5 mph5.6 kmh 30.09 in1019.0 mb - 0.00 in0.0 mm 0.00 in0.0 mm
12:35 PM 52.1°F11.2°C 51.0°F10.6°C 96% Calm Calm -- 30.09 in1019.0 mb - 0.00 in0.0 mm 0.00 in0.0 mm
12:40 PM 52.2°F11.2°C 50.8°F10.4°C 95% 1.2 mph WNW1.9 kmh WNW 2.3 mph3.7 kmh 30.09 in1019.0 mb - 0.00 in0.0 mm 0.00 in0.0 mm
12:45 PM 52.3°F11.3°C 50.9°F10.5°C 95% Calm Calm 1.2 mph1.9 kmh 30.09 in1019.0 mb - 0.00 in0.0 mm 0.00 in0.0 mm
12:50 PM 52.2°F11.2°C 50.8°F10.4°C 95% Calm Calm -- 30.09 in1019.0 mb - 0.00 in0.0 mm 0.00 in0.0 mm
12:55 PM 52.1°F11.2°C 50.7°F10.4°C 95% Calm Calm -- 30.09 in1019.0 mb - 0.00 in0.0 mm 0.00 in0.0 mm
01:00 PM 52.1°F11.2°C 50.8°F10.4°C 95% Calm Calm 3.5 mph5.6 kmh 30.08 in1018.6 mb - 0.00 in0.0 mm 0.00 in0.0 mm
01:10 PM 52.5°F11.4°C 51.1°F10.6°C 95% Calm Calm -- 30.08 in1018.6 mb - 0.00 in0.0 mm 0.00 in0.0 mm
01:15 PM 52.6°F11.4°C 50.9°F10.5°C 94% 1.2 mph WNW1.9 kmh WNW 1.2 mph1.9 kmh 30.08 in1018.6 mb - 0.00 in0.0 mm 0.00 in0.0 mm
01:20 PM 52.8°F11.6°C 51.1°F10.6°C 94% Calm Calm -- 30.07 in1018.3 mb - 0.00 in0.0 mm 0.00 in0.0 mm
01:25 PM 53.0°F11.7°C 51.3°F10.7°C 94% Calm Calm 1.2 mph1.9 kmh 30.07 in1018.3 mb - 0.00 in0.0 mm 0.00 in0.0 mm
01:30 PM 53.1°F11.7°C 51.2°F10.7°C 93% Calm Calm 1.2 mph1.9 kmh 30.07 in1018.3 mb - 0.00 in0.0 mm 0.00 in0.0 mm
01:35 PM 53.3°F11.8°C 51.3°F10.7°C 93% Calm Calm -- 30.07 in1018.3 mb - 0.00 in0.0 mm 0.00 in0.0 mm
01:40 PM 53.5°F11.9°C 51.2°F10.7°C 92% 1.2 mph WNW1.9 kmh WNW 3.5 mph5.6 kmh 30.06 in1017.9 mb - 0.00 in0.0 mm 0.00 in0.0 mm
01:45 PM 53.7°F12.1°C 51.4°F10.8°C 92% 1.2 mph WNW1.9 kmh WNW 1.2 mph1.9 kmh 30.06 in1017.9 mb - 0.00 in0.0 mm 0.00 in0.0 mm
01:50 PM 53.8°F12.1°C 51.2°F10.7°C 91% Calm Calm -- 30.06 in1017.9 mb - 0.00 in0.0 mm 0.00 in0.0 mm
01:55 PM 54.0°F12.2°C 51.4°F10.8°C 91% Calm Calm -- 30.06 in1017.9 mb - 0.00 in0.0 mm 0.00 in0.0 mm
02:00 PM 54.1°F12.3°C 51.2°F10.7°C 90% Calm Calm -- 30.06 in1017.9 mb - 0.00 in0.0 mm 0.00 in0.0 mm
02:10 PM 54.3°F12.4°C 50.8°F10.4°C 88% Calm Calm -- 30.05 in1017.6 mb - 0.00 in0.0 mm 0.00 in0.0 mm
02:15 PM 54.4°F12.4°C 50.9°F10.5°C 88% 2.3 mph WNW3.7 kmh WNW 3.5 mph5.6 kmh 30.05 in1017.6 mb - 0.00 in0.0 mm 0.00 in0.0 mm
02:20 PM 54.5°F12.5°C 50.7°F10.4°C 87% Calm Calm -- 30.06 in1017.9 mb - 0.00 in0.0 mm 0.00 in0.0 mm
02:25 PM 54.6°F12.6°C 50.5°F10.3°C 86% 3.5 mph WNW5.6 kmh WNW 4.6 mph7.4 kmh 30.05 in1017.6 mb - 0.00 in0.0 mm 0.00 in0.0 mm
02:30 PM 54.7°F12.6°C 50.6°F10.3°C 86% Calm Calm -- 30.05 in1017.6 mb - 0.00 in0.0 mm 0.00 in0.0 mm
02:35 PM 54.7°F12.6°C 50.3°F10.2°C 85% Calm Calm -- 30.05 in1017.6 mb - 0.00 in0.0 mm 0.00 in0.0 mm
02:40 PM 54.7°F12.6°C 50.3°F10.2°C 85% Calm Calm 2.3 mph3.7 kmh 30.05 in1017.6 mb - 0.00 in0.0 mm 0.00 in0.0 mm
02:45 PM 54.8°F12.7°C 50.4°F10.2°C 85% Calm Calm -- 30.05 in1017.6 mb - 0.00 in0.0 mm 0.00 in0.0 mm
02:50 PM 54.8°F12.7°C 50.4°F10.2°C 85% Calm Calm -- 30.05 in1017.6 mb - 0.00 in0.0 mm 0.00 in0.0 mm
02:55 PM 54.9°F12.7°C 50.5°F10.3°C 85% Calm Calm 2.3 mph3.7 kmh 30.05 in1017.6 mb - 0.00 in0.0 mm 0.00 in0.0 mm
03:00 PM 54.9°F12.7°C 50.5°F10.3°C 85% 1.2 mph WNW1.9 kmh WNW 3.5 mph5.6 kmh 30.05 in1017.6 mb - 0.00 in0.0 mm 0.00 in0.0 mm
03:10 PM 54.8°F12.7°C 50.1°F10.1°C 84% 1.2 mph WNW1.9 kmh WNW 2.3 mph3.7 kmh 30.05 in1017.6 mb - 0.00 in0.0 mm 0.00 in0.0 mm
03:15 PM 54.7°F12.6°C 50.0°F10.0°C 84% 1.2 mph WNW1.9 kmh WNW 3.5 mph5.6 kmh 30.04 in1017.3 mb - 0.00 in0.0 mm 0.00 in0.0 mm
03:20 PM 54.6°F12.6°C 49.9°F9.9°C 84% 1.2 mph WNW1.9 kmh WNW 3.5 mph5.6 kmh 30.04 in1017.3 mb - 0.00 in0.0 mm 0.00 in0.0 mm
03:25 PM 54.5°F12.5°C 49.8°F9.9°C 84% 2.3 mph WNW3.7 kmh WNW 3.5 mph5.6 kmh 30.04 in1017.3 mb - 0.00 in0.0 mm 0.00 in0.0 mm
03:30 PM 54.3°F12.4°C 49.6°F9.8°C 84% Calm Calm 2.3 mph3.7 kmh 30.05 in1017.6 mb - 0.00 in0.0 mm 0.00 in0.0 mm
03:35 PM 54.3°F12.4°C 49.5°F9.7°C 84% 1.2 mph WNW1.9 kmh WNW 1.2 mph1.9 kmh 30.05 in1017.6 mb - 0.00 in0.0 mm 0.00 in0.0 mm
03:40 PM 54.2°F12.3°C 49.8°F9.9°C 85% Calm Calm -- 30.04 in1017.3 mb - 0.00 in0.0 mm 0.00 in0.0 mm
03:45 PM 54.1°F12.3°C 49.7°F9.8°C 85% Calm Calm 2.3 mph3.7 kmh 30.04 in1017.3 mb - 0.00 in0.0 mm 0.00 in0.0 mm
03:50 PM 54.1°F12.3°C 49.7°F9.8°C 85% Calm Calm 1.2 mph1.9 kmh 30.04 in1017.3 mb - 0.00 in0.0 mm 0.00 in0.0 mm
03:55 PM 54.0°F12.2°C 49.6°F9.8°C 85% 1.2 mph WNW1.9 kmh WNW 3.5 mph5.6 kmh 30.04 in1017.3 mb - 0.00 in0.0 mm 0.00 in0.0 mm
04:00 PM 53.8°F12.1°C 49.4°F9.7°C 85% 1.2 mph WNW1.9 kmh WNW 2.3 mph3.7 kmh 30.04 in1017.3 mb - 0.00 in0.0 mm 0.00 in0.0 mm
04:10 PM 53.6°F12.0°C 49.5°F9.7°C 86% 1.2 mph WNW1.9 kmh WNW 1.2 mph1.9 kmh 30.03 in1016.9 mb - 0.00 in0.0 mm 0.00 in0.0 mm
04:15 PM 53.6°F12.0°C 49.5°F9.7°C 86% Calm Calm 2.3 mph3.7 kmh 30.03 in1016.9 mb - 0.00 in0.0 mm 0.00 in0.0 mm
04:20 PM 53.6°F12.0°C 49.8°F9.9°C 87% 2.3 mph WNW3.7 kmh WNW 3.5 mph5.6 kmh 30.03 in1016.9 mb - 0.00 in0.0 mm 0.00 in0.0 mm
04:25 PM 53.6°F12.0°C 49.9°F9.9°C 87% 1.2 mph WNW1.9 kmh WNW 2.3 mph3.7 kmh 30.03 in1016.9 mb - 0.00 in0.0 mm 0.00 in0.0 mm
04:30 PM 53.6°F12.0°C 49.8°F9.9°C 87% 2.3 mph WNW3.7 kmh WNW 3.5 mph5.6 kmh 30.03 in1016.9 mb - 0.00 in0.0 mm 0.00 in0.0 mm
04:35 PM 53.4°F11.9°C 49.9°F9.9°C 88% 2.3 mph WNW3.7 kmh WNW 3.5 mph5.6 kmh 30.03 in1016.9 mb - 0.00 in0.0 mm 0.00 in0.0 mm
04:40 PM 53.3°F11.8°C 49.8°F9.9°C 88% 2.3 mph WNW3.7 kmh WNW 3.5 mph5.6 kmh 30.03 in1016.9 mb - 0.00 in0.0 mm 0.00 in0.0 mm
04:45 PM 53.1°F11.7°C 49.6°F9.8°C 88% 2.3 mph WSW3.7 kmh WSW 3.5 mph5.6 kmh 30.03 in1016.9 mb - 0.00 in0.0 mm 0.00 in0.0 mm
04:50 PM 53.0°F11.7°C 49.6°F9.8°C 88% Calm Calm 1.2 mph1.9 kmh 30.03 in1016.9 mb - 0.00 in0.0 mm 0.00 in0.0 mm
04:55 PM 53.0°F11.7°C 49.5°F9.7°C 88% 2.3 mph WSW3.7 kmh WSW 3.5 mph5.6 kmh 30.03 in1016.9 mb - 0.00 in0.0 mm 0.00 in0.0 mm
05:00 PM 52.9°F11.6°C 49.4°F9.7°C 88% 1.2 mph WSW1.9 kmh WSW 3.5 mph5.6 kmh 30.03 in1016.9 mb - 0.00 in0.0 mm 0.00 in0.0 mm
05:10 PM 52.7°F11.5°C 49.2°F9.6°C 88% 2.3 mph WSW3.7 kmh WSW 3.5 mph5.6 kmh 30.04 in1017.3 mb - 0.00 in0.0 mm 0.00 in0.0 mm
05:15 PM 52.7°F11.5°C 49.5°F9.7°C 89% Calm Calm 1.2 mph1.9 kmh 30.04 in1017.3 mb - 0.00 in0.0 mm 0.00 in0.0 mm
05:20 PM 52.6°F11.4°C 49.5°F9.7°C 89% Calm Calm 1.2 mph1.9 kmh 30.04 in1017.3 mb - 0.01 in0.3 mm 0.01 in0.3 mm
05:25 PM 52.6°F11.4°C 49.4°F9.7°C 89% Calm Calm -- 30.03 in1016.9 mb - 0.01 in0.3 mm 0.01 in0.3 mm
05:30 PM 52.6°F11.4°C 49.4°F9.7°C 89% Calm Calm -- 30.03 in1016.9 mb - 0.02 in0.5 mm 0.02 in0.5 mm
05:35 PM 52.5°F11.4°C 49.4°F9.7°C 89% Calm Calm 2.3 mph3.7 kmh 30.04 in1017.3 mb - 0.02 in0.5 mm 0.02 in0.5 mm
05:40 PM 52.5°F11.4°C 49.7°F9.8°C 90% Calm Calm -- 30.04 in1017.3 mb - 0.02 in0.5 mm 0.02 in0.5 mm
05:45 PM 52.4°F11.3°C 49.6°F9.8°C 90% Calm Calm 2.3 mph3.7 kmh 30.04 in1017.3 mb - 0.02 in0.5 mm 0.02 in0.5 mm
05:50 PM 52.3°F11.3°C 49.5°F9.7°C 90% Calm Calm -- 30.04 in1017.3 mb - 0.02 in0.5 mm 0.02 in0.5 mm
05:55 PM 52.3°F11.3°C 49.5°F9.7°C 90% 1.2 mph WSW1.9 kmh WSW 3.5 mph5.6 kmh 30.04 in1017.3 mb - 0.02 in0.5 mm 0.02 in0.5 mm
06:00 PM 52.3°F11.3°C 49.8°F9.9°C 91% Calm Calm -- 30.04 in1017.3 mb - 0.03 in0.8 mm 0.03 in0.8 mm
06:10 PM 52.2°F11.2°C 49.7°F9.8°C 91% 1.2 mph WSW1.9 kmh WSW 1.2 mph1.9 kmh 30.04 in1017.3 mb - 0.03 in0.8 mm 0.03 in0.8 mm
06:15 PM 52.1°F11.2°C 49.6°F9.8°C 91% Calm Calm -- 30.04 in1017.3 mb - 0.03 in0.8 mm 0.03 in0.8 mm
06:20 PM 52.1°F11.2°C 49.6°F9.8°C 91% Calm Calm 1.2 mph1.9 kmh 30.04 in1017.3 mb - 0.03 in0.8 mm 0.04 in1.0 mm
06:25 PM 52.1°F11.2°C 49.8°F9.9°C 92% Calm Calm -- 30.04 in1017.3 mb - 0.03 in0.8 mm 0.04 in1.0 mm
06:30 PM 52.1°F11.2°C 49.8°F9.9°C 92% Calm Calm -- 30.04 in1017.3 mb - 0.02 in0.5 mm 0.04 in1.0 mm
06:35 PM 52.0°F11.1°C 49.7°F9.8°C 92% Calm Calm -- 30.04 in1017.3 mb - 0.02 in0.5 mm 0.04 in1.0 mm
06:40 PM 52.0°F11.1°C 49.7°F9.8°C 92% Calm Calm -- 30.04 in1017.3 mb - 0.02 in0.5 mm 0.04 in1.0 mm
06:45 PM 52.0°F11.1°C 49.7°F9.8°C 92% Calm Calm -- 30.04 in1017.3 mb - 0.02 in0.5 mm 0.04 in1.0 mm
06:50 PM 51.9°F11.1°C 49.7°F9.8°C 92% Calm Calm -- 30.04 in1017.3 mb - 0.03 in0.8 mm 0.05 in1.3 mm
06:55 PM 51.9°F11.1°C 49.6°F9.8°C 92% Calm Calm -- 30.04 in1017.3 mb - 0.03 in0.8 mm 0.05 in1.3 mm
07:00 PM 51.9°F11.1°C 49.6°F9.8°C 92% Calm Calm -- 30.04 in1017.3 mb - 0.02 in0.5 mm 0.05 in1.3 mm
07:10 PM 51.9°F11.1°C 49.7°F9.8°C 92% Calm Calm -- 30.04 in1017.3 mb - 0.03 in0.8 mm 0.06 in1.5 mm
07:15 PM 52.0°F11.1°C 50.0°F10.0°C 93% Calm Calm -- 30.04 in1017.3 mb - 0.03 in0.8 mm 0.06 in1.5 mm
07:20 PM 52.0°F11.1°C 50.0°F10.0°C 93% Calm Calm -- 30.04 in1017.3 mb - 0.02 in0.5 mm 0.06 in1.5 mm
07:25 PM 52.0°F11.1°C 50.0°F10.0°C 93% Calm Calm 1.2 mph1.9 kmh 30.03 in1016.9 mb - 0.02 in0.5 mm 0.06 in1.5 mm
07:30 PM 52.0°F11.1°C 50.0°F10.0°C 93% Calm Calm -- 30.03 in1016.9 mb - 0.02 in0.5 mm 0.06 in1.5 mm
07:35 PM 52.0°F11.1°C 50.0°F10.0°C 93% Calm Calm -- 30.03 in1016.9 mb - 0.02 in0.5 mm 0.06 in1.5 mm
07:40 PM 52.0°F11.1°C 50.0°F10.0°C 93% Calm Calm -- 30.03 in1016.9 mb - 0.02 in0.5 mm 0.06 in1.5 mm
07:45 PM 52.0°F11.1°C 50.0°F10.0°C 93% Calm Calm 2.3 mph3.7 kmh 30.03 in1016.9 mb - 0.02 in0.5 mm 0.06 in1.5 mm
07:50 PM 52.0°F11.1°C 50.0°F10.0°C 93% Calm Calm 1.2 mph1.9 kmh 30.03 in1016.9 mb - 0.02 in0.5 mm 0.07 in1.8 mm
07:55 PM 52.0°F11.1°C 50.0°F10.0°C 93% 1.2 mph WSW1.9 kmh WSW 1.2 mph1.9 kmh 30.03 in1016.9 mb - 0.02 in0.5 mm 0.07 in1.8 mm
08:00 PM 51.9°F11.1°C 49.9°F9.9°C 93% Calm Calm 1.2 mph1.9 kmh 30.03 in1016.9 mb - 0.02 in0.5 mm 0.07 in1.8 mm
08:10 PM 51.9°F11.1°C 49.9°F9.9°C 93% Calm Calm 1.2 mph1.9 kmh 30.03 in1016.9 mb - 0.01 in0.3 mm 0.07 in1.8 mm
08:15 PM 51.9°F11.1°C 49.9°F9.9°C 93% Calm Calm -- 30.03 in1016.9 mb - 0.01 in0.3 mm 0.07 in1.8 mm
08:20 PM 51.9°F11.1°C 50.2°F10.1°C 94% Calm Calm -- 30.03 in1016.9 mb - 0.01 in0.3 mm 0.07 in1.8 mm
08:25 PM 52.0°F11.1°C 50.3°F10.2°C 94% Calm Calm -- 30.02 in1016.6 mb - 0.01 in0.3 mm 0.07 in1.8 mm
08:30 PM 52.0°F11.1°C 50.3°F10.2°C 94% Calm Calm -- 30.02 in1016.6 mb - 0.01 in0.3 mm 0.07 in1.8 mm
08:35 PM 52.0°F11.1°C 50.3°F10.2°C 94% Calm Calm -- 30.02 in1016.6 mb - 0.01 in0.3 mm 0.07 in1.8 mm
08:40 PM 52.0°F11.1°C 50.3°F10.2°C 94% Calm Calm -- 30.02 in1016.6 mb - 0.01 in0.3 mm 0.07 in1.8 mm
08:45 PM 52.0°F11.1°C 50.3°F10.2°C 94% Calm Calm -- 30.02 in1016.6 mb - 0.01 in0.3 mm 0.07 in1.8 mm
08:50 PM 52.0°F11.1°C 50.3°F10.2°C 94% Calm Calm -- 30.02 in1016.6 mb - 0.00 in0.0 mm 0.07 in1.8 mm
08:55 PM 52.0°F11.1°C 50.3°F10.2°C 94% 1.2 mph WSW1.9 kmh WSW 2.3 mph3.7 kmh 30.02 in1016.6 mb - 0.00 in0.0 mm 0.07 in1.8 mm
09:00 PM 52.0°F11.1°C 50.3°F10.2°C 94% Calm Calm -- 30.02 in1016.6 mb - 0.00 in0.0 mm 0.07 in1.8 mm
09:10 PM 52.0°F11.1°C 50.3°F10.2°C 94% Calm Calm 2.3 mph3.7 kmh 30.02 in1016.6 mb - 0.00 in0.0 mm 0.07 in1.8 mm
09:15 PM 52.0°F11.1°C 50.3°F10.2°C 94% 2.3 mph WSW3.7 kmh WSW 3.5 mph5.6 kmh 30.02 in1016.6 mb - 0.00 in0.0 mm 0.07 in1.8 mm
09:20 PM 52.0°F11.1°C 50.3°F10.2°C 94% Calm Calm 1.2 mph1.9 kmh 30.02 in1016.6 mb - 0.00 in0.0 mm 0.07 in1.8 mm
09:25 PM 52.0°F11.1°C 50.3°F10.2°C 94% Calm Calm 1.2 mph1.9 kmh 30.02 in1016.6 mb - 0.00 in0.0 mm 0.07 in1.8 mm
09:30 PM 52.0°F11.1°C 50.3°F10.2°C 94% 1.2 mph WSW1.9 kmh WSW 3.5 mph5.6 kmh 30.02 in1016.6 mb - 0.00 in0.0 mm 0.07 in1.8 mm
09:35 PM 52.0°F11.1°C 50.3°F10.2°C 94% 1.2 mph WSW1.9 kmh WSW 3.5 mph5.6 kmh 30.02 in1016.6 mb - 0.00 in0.0 mm 0.07 in1.8 mm
09:40 PM 52.0°F11.1°C 50.3°F10.2°C 94% 1.2 mph WSW1.9 kmh WSW 2.3 mph3.7 kmh 30.02 in1016.6 mb - 0.00 in0.0 mm 0.07 in1.8 mm
09:45 PM 52.0°F11.1°C 50.3°F10.2°C 94% Calm Calm 1.2 mph1.9 kmh 30.02 in1016.6 mb - 0.00 in0.0 mm 0.07 in1.8 mm
09:50 PM 52.0°F11.1°C 50.3°F10.2°C 94% Calm Calm 1.2 mph1.9 kmh 30.02 in1016.6 mb - 0.00 in0.0 mm 0.07 in1.8 mm
09:55 PM 52.0°F11.1°C 50.3°F10.2°C 94% Calm Calm -- 30.02 in1016.6 mb - 0.00 in0.0 mm 0.07 in1.8 mm
10:00 PM 52.0°F11.1°C 50.3°F10.2°C 94% Calm Calm -- 30.02 in1016.6 mb - 0.00 in0.0 mm 0.07 in1.8 mm
10:10 PM 52.0°F11.1°C 50.6°F10.3°C 95% Calm Calm -- 30.02 in1016.6 mb - 0.00 in0.0 mm 0.07 in1.8 mm
10:15 PM 52.0°F11.1°C 50.6°F10.3°C 95% Calm Calm -- 30.02 in1016.6 mb - 0.00 in0.0 mm 0.07 in1.8 mm
10:20 PM 52.0°F11.1°C 50.6°F10.3°C 95% Calm Calm -- 30.01 in1016.3 mb - 0.00 in0.0 mm 0.07 in1.8 mm
10:25 PM 52.0°F11.1°C 50.6°F10.3°C 95% Calm Calm -- 30.01 in1016.3 mb - 0.00 in0.0 mm 0.07 in1.8 mm
10:30 PM 52.0°F11.1°C 50.6°F10.3°C 95% Calm Calm -- 30.01 in1016.3 mb - 0.00 in0.0 mm 0.07 in1.8 mm
10:35 PM 52.0°F11.1°C 50.6°F10.3°C 95% Calm Calm -- 30.01 in1016.3 mb - 0.00 in0.0 mm 0.07 in1.8 mm
10:40 PM 52.0°F11.1°C 50.6°F10.3°C 95% Calm Calm -- 30.01 in1016.3 mb - 0.00 in0.0 mm 0.07 in1.8 mm
10:45 PM 52.0°F11.1°C 50.6°F10.3°C 95% Calm Calm -- 30.01 in1016.3 mb - 0.00 in0.0 mm 0.07 in1.8 mm
10:50 PM 51.9°F11.1°C 50.6°F10.3°C 95% Calm Calm -- 30.01 in1016.3 mb - 0.00 in0.0 mm 0.07 in1.8 mm
10:55 PM 51.9°F11.1°C 50.6°F10.3°C 95% Calm Calm -- 30.00 in1015.9 mb - 0.00 in0.0 mm 0.07 in1.8 mm
11:00 PM 52.0°F11.1°C 50.6°F10.3°C 95% Calm Calm -- 30.00 in1015.9 mb - 0.00 in0.0 mm 0.07 in1.8 mm
11:10 PM 52.0°F11.1°C 50.6°F10.3°C 95% Calm Calm -- 30.00 in1015.9 mb - 0.00 in0.0 mm 0.07 in1.8 mm
11:15 PM 52.0°F11.1°C 50.6°F10.3°C 95% Calm Calm -- 30.00 in1015.9 mb - 0.00 in0.0 mm 0.07 in1.8 mm
11:20 PM 52.0°F11.1°C 50.6°F10.3°C 95% Calm Calm -- 30.00 in1015.9 mb - 0.00 in0.0 mm 0.07 in1.8 mm
11:25 PM 52.0°F11.1°C 50.6°F10.3°C 95% Calm Calm -- 30.00 in1015.9 mb - 0.01 in0.3 mm 0.08 in2.0 mm
11:30 PM 52.0°F11.1°C 50.6°F10.3°C 95% Calm Calm -- 30.00 in1015.9 mb - 0.01 in0.3 mm 0.08 in2.0 mm
11:35 PM 51.9°F11.1°C 50.5°F10.3°C 95% Calm Calm -- 30.00 in1015.9 mb - 0.01 in0.3 mm 0.08 in2.0 mm
11:40 PM 51.9°F11.1°C 50.5°F10.3°C 95% Calm Calm -- 30.00 in1015.9 mb - 0.01 in0.3 mm 0.08 in2.0 mm
11:45 PM 51.9°F11.1°C 50.5°F10.3°C 95% Calm Calm -- 30.00 in1015.9 mb - 0.01 in0.3 mm 0.08 in2.0 mm
11:50 PM 51.9°F11.1°C 50.5°F10.3°C 95% Calm Calm -- 30.00 in1015.9 mb - 0.01 in0.3 mm 0.08 in2.0 mm
11:55 PM 51.9°F11.1°C 50.5°F10.3°C 95% Calm Calm -- 30.00 in1015.9 mb - 0.01 in0.3 mm 0.08 in2.0 mm